Time;durP1;ratioP1;P1;durP2;ratioP2;P2;SDS_P1;SDS_P2;PMS_P1;PMS_P2;Temp;Humidity;BMP_temperature;BMP_pressure;BME280_temperature;BME280_humidity;BME280_pressure;Samples;Min_cycle;Max_cycle;Signal;HPM_P1;HPM_P2
2022/07/30 21:03:47;;;;;;;2.97;0.90;;;24.40;84.40;;;;;;4930537;28;2758123;-90
2022/07/30 21:06:12;;;;;;;1.23;0.80;;;24.40;84.40;;;;;;5049248;28;20490;-93
2022/07/30 21:08:38;;;;;;;1.48;0.73;;;24.40;84.50;;;;;;5047923;28;20853;-91
2022/07/30 21:11:03;;;;;;;1.63;0.93;;;24.40;84.60;;;;;;5046771;28;20369;-88
2022/07/30 21:13:29;;;;;;;1.65;0.80;;;24.30;84.70;;;;;;5047104;28;20796;-89
2022/07/30 21:15:55;;;;;;;1.48;0.90;;;24.30;84.80;;;;;;5048167;28;20458;-91
2022/07/30 21:18:22;;;;;;;1.50;1.00;;;24.30;84.80;;;;;;5047536;28;20125;-90
2022/07/30 21:20:47;;;;;;;1.23;0.80;;;24.20;84.80;;;;;;5045810;28;20043;-90
2022/07/30 21:23:17;;;;;;;1.27;0.80;;;24.20;84.90;;;;;;5048244;28;20677;-90
2022/07/30 21:25:43;;;;;;;1.95;0.90;;;24.20;85.10;;;;;;5048219;28;20033;-92
2022/07/30 21:28:09;;;;;;;1.20;0.90;;;24.10;85.10;;;;;;5047564;28;20064;-91
2022/07/30 21:30:34;;;;;;;1.92;0.77;;;24.00;85.20;;;;;;5051272;28;20037;-90
2022/07/30 21:33:00;;;;;;;2.10;0.90;;;24.00;85.30;;;;;;5047446;28;20045;-91
2022/07/30 21:35:26;;;;;;;2.08;0.70;;;24.00;85.30;;;;;;5046571;28;20046;-91
2022/07/30 21:37:51;;;;;;;1.10;0.70;;;23.90;85.50;;;;;;5047041;28;20471;-91
2022/07/30 21:40:17;;;;;;;1.77;0.80;;;23.90;85.50;;;;;;5047070;28;20077;-88
2022/07/30 21:42:43;;;;;;;3.28;1.10;;;23.90;85.50;;;;;;5031406;28;20032;-90
2022/07/30 21:45:09;;;;;;;1.63;0.80;;;23.90;85.50;;;;;;5046378;28;20029;-88
2022/07/30 21:47:35;;;;;;;1.27;0.75;;;23.90;85.60;;;;;;5028933;28;20022;-91
2022/07/30 21:50:02;;;;;;;2.38;0.80;;;23.90;85.80;;;;;;5023157;28;20041;-88
2022/07/30 21:52:28;;;;;;;1.92;0.95;;;23.90;85.80;;;;;;5035161;28;20046;-90
2022/07/30 21:54:53;;;;;;;1.05;0.77;;;23.80;85.90;;;;;;5049990;28;20030;-93
2022/07/30 21:57:19;;;;;;;1.50;0.63;;;23.80;85.90;;;;;;5050071;28;20100;-91
2022/07/30 21:59:46;;;;;;;2.50;1.10;;;23.70;86.10;;;;;;5050057;28;20109;-91
2022/07/30 22:02:12;;;;;;;1.50;0.60;;;23.70;86.30;;;;;;5049677;28;20021;-91
2022/07/30 22:04:38;;;;;;;2.05;1.00;;;23.70;86.20;;;;;;5050167;28;20541;-92
2022/07/30 22:07:03;;;;;;;1.45;0.77;;;23.60;86.10;;;;;;5050441;28;20029;-90
2022/07/30 22:09:29;;;;;;;1.00;0.82;;;23.60;86.20;;;;;;5051452;28;20487;-91
2022/07/30 22:11:55;;;;;;;1.88;1.00;;;23.50;86.20;;;;;;5050371;28;20122;-91
2022/07/30 22:14:20;;;;;;;1.20;0.80;;;23.50;86.40;;;;;;5048834;28;20044;-90
2022/07/30 22:16:46;;;;;;;1.23;0.90;;;23.40;86.50;;;;;;5048755;28;20037;-90
2022/07/30 22:19:13;;;;;;;1.58;0.90;;;23.50;86.60;;;;;;5048994;28;20017;-90
2022/07/30 22:21:38;;;;;;;1.52;0.90;;;23.40;87.10;;;;;;5049452;28;20034;-89
2022/07/30 22:24:04;;;;;;;1.05;0.80;;;23.40;87.20;;;;;;5049057;28;20048;-89
2022/07/30 22:26:30;;;;;;;1.60;0.80;;;23.30;86.70;;;;;;5033534;28;20077;-90
2022/07/30 22:28:56;;;;;;;0.93;0.60;;;23.30;86.80;;;;;;5049192;28;20073;-90
2022/07/30 22:31:21;;;;;;;2.42;0.98;;;23.30;86.80;;;;;;5033489;28;20081;-89
2022/07/30 22:33:47;;;;;;;1.42;0.90;;;23.30;86.90;;;;;;5049039;28;20075;-89
2022/07/30 22:36:12;;;;;;;2.40;0.93;;;23.40;86.90;;;;;;5048851;28;20119;-90
2022/07/30 22:38:38;;;;;;;1.27;0.70;;;23.30;86.90;;;;;;5035584;28;20026;-89
2022/07/30 22:41:04;;;;;;;1.70;0.80;;;23.40;86.90;;;;;;5052855;28;20041;-89
2022/07/30 22:43:30;;;;;;;2.55;0.98;;;23.40;87.00;;;;;;5052801;28;20420;-91
2022/07/30 22:45:56;;;;;;;1.20;0.80;;;23.40;87.10;;;;;;5052650;28;20365;-90
2022/07/30 22:48:21;;;;;;;2.70;0.98;;;23.40;87.20;;;;;;5036570;28;20036;-89
2022/07/30 22:50:47;;;;;;;1.65;0.95;;;23.40;87.40;;;;;;5052098;28;20443;-90
2022/07/30 22:53:13;;;;;;;0.90;0.80;;;23.40;87.60;;;;;;5013346;28;20038;-90
2022/07/30 22:55:39;;;;;;;1.40;1.10;;;23.30;87.60;;;;;;5024537;28;20044;-90
2022/07/30 22:58:04;;;;;;;2.10;1.00;;;23.30;87.80;;;;;;5055265;28;20021;-89
2022/07/30 23:00:30;;;;;;;2.10;1.00;;;23.30;87.90;;;;;;5046540;28;20040;-89
2022/07/30 23:02:57;;;;;;;1.83;0.90;;;23.30;87.90;;;;;;5054739;28;20124;-90
2022/07/30 23:05:23;;;;;;;1.50;0.90;;;23.20;87.90;;;;;;5048920;28;20033;-90
2022/07/30 23:07:50;;;;;;;0.93;0.75;;;23.30;88.00;;;;;;5054360;28;20037;-89
2022/07/30 23:10:17;;;;;;;1.55;0.80;;;23.20;87.90;;;;;;5055917;28;20483;-90
2022/07/30 23:12:44;;;;;;;1.42;1.00;;;23.20;88.00;;;;;;5055095;28;20025;-90
2022/07/30 23:15:10;;;;;;;2.45;0.88;;;23.20;88.10;;;;;;5055494;28;20582;-91
2022/07/30 23:17:37;;;;;;;1.75;0.93;;;23.20;88.10;;;;;;5055775;28;20059;-90
2022/07/30 23:20:06;;;;;;;1.17;0.70;;;23.20;88.30;;;;;;5049617;28;20026;-90
2022/07/30 23:22:32;;;;;;;1.90;1.00;;;23.10;88.40;;;;;;5056393;28;20025;-90
2022/07/30 23:24:58;;;;;;;1.25;0.73;;;23.10;88.50;;;;;;5054454;28;20039;-90
2022/07/30 23:27:24;;;;;;;1.30;0.80;;;23.00;88.50;;;;;;5054827;28;20048;-89
2022/07/30 23:29:49;;;;;;;2.22;0.82;;;23.10;88.70;;;;;;5055569;28;20085;-90
2022/07/30 23:32:15;;;;;;;1.48;0.93;;;23.00;88.80;;;;;;5055344;28;20033;-90
2022/07/30 23:34:40;;;;;;;1.65;0.90;;;23.00;88.70;;;;;;5055291;28;20114;-91
2022/07/30 23:37:06;;;;;;;1.38;0.80;;;22.90;88.90;;;;;;5042420;28;20033;-90
2022/07/30 23:39:32;;;;;;;1.20;0.70;;;22.90;89.00;;;;;;5054988;28;20442;-89
2022/07/30 23:41:57;;;;;;;1.55;0.90;;;22.80;89.20;;;;;;5055926;28;20033;-90
2022/07/30 23:44:23;;;;;;;1.65;0.80;;;22.80;89.30;;;;;;5055355;28;20025;-90
2022/07/30 23:46:49;;;;;;;1.10;0.65;;;22.80;89.20;;;;;;5056681;28;20033;-90
2022/07/30 23:49:14;;;;;;;2.97;0.82;;;22.80;89.30;;;;;;5056264;28;20483;-90
2022/07/30 23:51:40;;;;;;;1.15;0.75;;;22.80;89.40;;;;;;5054864;28;20033;-88
2022/07/30 23:54:05;;;;;;;2.53;0.90;;;22.70;89.50;;;;;;5054878;28;20043;-90
2022/07/30 23:56:31;;;;;;;1.25;0.80;;;22.70;89.60;;;;;;5055658;28;20033;-91
2022/07/30 23:58:57;;;;;;;1.17;0.70;;;22.70;89.70;;;;;;5054699;28;20044;-92
